sensor_id;sensor_type;location;lat;lon;timestamp;temperature;humidity
10192;DHT22;17580;50.850;4.504;2023-04-03T00:01:47;3.00;93.00
10192;DHT22;17580;50.850;4.504;2023-04-03T00:04:13;2.90;93.10
10192;DHT22;17580;50.850;4.504;2023-04-03T00:06:42;2.90;93.20
10192;DHT22;17580;50.850;4.504;2023-04-03T00:09:09;2.90;93.10
10192;DHT22;17580;50.850;4.504;2023-04-03T00:11:36;2.90;93.20
10192;DHT22;17580;50.850;4.504;2023-04-03T00:14:03;2.90;93.40
10192;DHT22;17580;50.850;4.504;2023-04-03T00:16:30;2.90;94.00
10192;DHT22;17580;50.850;4.504;2023-04-03T00:18:57;2.90;93.70
10192;DHT22;17580;50.850;4.504;2023-04-03T00:21:23;2.90;93.80
10192;DHT22;17580;50.850;4.504;2023-04-03T00:23:52;2.90;93.50
10192;DHT22;17580;50.850;4.504;2023-04-03T00:26:19;2.90;94.20
10192;DHT22;17580;50.850;4.504;2023-04-03T00:28:46;2.80;93.60
10192;DHT22;17580;50.850;4.504;2023-04-03T00:31:14;2.80;94.30
10192;DHT22;17580;50.850;4.504;2023-04-03T00:33:41;2.80;95.30
10192;DHT22;17580;50.850;4.504;2023-04-03T00:36:09;2.90;95.30
10192;DHT22;17580;50.850;4.504;2023-04-03T00:38:37;2.90;95.00
10192;DHT22;17580;50.850;4.504;2023-04-03T00:41:05;2.90;95.00
10192;DHT22;17580;50.850;4.504;2023-04-03T00:43:32;2.90;95.00
10192;DHT22;17580;50.850;4.504;2023-04-03T00:46:00;2.90;94.50
10192;DHT22;17580;50.850;4.504;2023-04-03T00:48:30;2.90;94.60
10192;DHT22;17580;50.850;4.504;2023-04-03T00:50:58;3.00;94.70
10192;DHT22;17580;50.850;4.504;2023-04-03T00:53:29;3.00;94.20
10192;DHT22;17580;50.850;4.504;2023-04-03T00:55:57;3.10;93.90
10192;DHT22;17580;50.850;4.504;2023-04-03T00:58:31;3.00;93.80
10192;DHT22;17580;50.850;4.504;2023-04-03T01:01:05;3.10;94.10
10192;DHT22;17580;50.850;4.504;2023-04-03T01:03:33;3.10;93.60
10192;DHT22;17580;50.850;4.504;2023-04-03T01:06:00;3.10;94.00
10192;DHT22;17580;50.850;4.504;2023-04-03T01:08:27;3.10;93.90
10192;DHT22;17580;50.850;4.504;2023-04-03T01:10:55;3.10;93.30
10192;DHT22;17580;50.850;4.504;2023-04-03T01:13:24;3.10;93.20
10192;DHT22;17580;50.850;4.504;2023-04-03T01:15:54;3.10;93.30
10192;DHT22;17580;50.850;4.504;2023-04-03T01:18:23;3.10;92.40
10192;DHT22;17580;50.850;4.504;2023-04-03T01:21:09;3.10;92.60
10192;DHT22;17580;50.850;4.504;2023-04-03T01:23:51;3.10;92.80
10192;DHT22;17580;50.850;4.504;2023-04-03T01:26:20;3.10;92.20
10192;DHT22;17580;50.850;4.504;2023-04-03T01:28:47;3.10;92.30
10192;DHT22;17580;50.850;4.504;2023-04-03T01:31:22;3.10;92.50
10192;DHT22;17580;50.850;4.504;2023-04-03T01:33:52;3.10;92.40
10192;DHT22;17580;50.850;4.504;2023-04-03T01:36:22;3.10;92.50
10192;DHT22;17580;50.850;4.504;2023-04-03T01:38:49;3.00;92.20
10192;DHT22;17580;50.850;4.504;2023-04-03T01:41:17;3.00;91.90
10192;DHT22;17580;50.850;4.504;2023-04-03T01:43:44;3.00;91.70
10192;DHT22;17580;50.850;4.504;2023-04-03T01:46:10;3.00;91.40
10192;DHT22;17580;50.850;4.504;2023-04-03T01:48:38;3.00;92.10
10192;DHT22;17580;50.850;4.504;2023-04-03T01:51:06;3.00;92.00
10192;DHT22;17580;50.850;4.504;2023-04-03T01:53:33;2.90;92.10
10192;DHT22;17580;50.850;4.504;2023-04-03T01:56:00;2.90;92.10
10192;DHT22;17580;50.850;4.504;2023-04-03T01:58:27;2.90;92.10
10192;DHT22;17580;50.850;4.504;2023-04-03T02:00:54;2.90;92.10
10192;DHT22;17580;50.850;4.504;2023-04-03T02:03:21;2.90;92.00
10192;DHT22;17580;50.850;4.504;2023-04-03T02:05:49;2.90;92.00
10192;DHT22;17580;50.850;4.504;2023-04-03T02:08:17;2.80;92.10
10192;DHT22;17580;50.850;4.504;2023-04-03T02:10:46;2.80;92.10
10192;DHT22;17580;50.850;4.504;2023-04-03T02:13:13;2.80;91.40
10192;DHT22;17580;50.850;4.504;2023-04-03T02:15:40;2.80;91.40
10192;DHT22;17580;50.850;4.504;2023-04-03T02:18:08;2.80;91.40
10192;DHT22;17580;50.850;4.504;2023-04-03T02:20:35;2.80;92.00
10192;DHT22;17580;50.850;4.504;2023-04-03T02:23:02;2.80;91.90
10192;DHT22;17580;50.850;4.504;2023-04-03T02:25:32;2.70;91.90
10192;DHT22;17580;50.850;4.504;2023-04-03T02:27:59;2.70;91.70
10192;DHT22;17580;50.850;4.504;2023-04-03T02:30:26;2.70;92.40
10192;DHT22;17580;50.850;4.504;2023-04-03T02:32:53;2.70;92.10
10192;DHT22;17580;50.850;4.504;2023-04-03T02:35:21;2.70;92.00
10192;DHT22;17580;50.850;4.504;2023-04-03T02:37:48;2.70;92.10
10192;DHT22;17580;50.850;4.504;2023-04-03T02:40:15;2.60;91.80
10192;DHT22;17580;50.850;4.504;2023-04-03T02:42:43;2.60;91.90
10192;DHT22;17580;50.850;4.504;2023-04-03T02:45:11;2.60;91.90
10192;DHT22;17580;50.850;4.504;2023-04-03T02:47:37;2.60;91.90
10192;DHT22;17580;50.850;4.504;2023-04-03T02:50:05;2.60;91.90
10192;DHT22;17580;50.850;4.504;2023-04-03T02:52:32;2.50;91.90
10192;DHT22;17580;50.850;4.504;2023-04-03T02:54:59;2.50;91.70
10192;DHT22;17580;50.850;4.504;2023-04-03T02:57:26;2.40;91.40
10192;DHT22;17580;50.850;4.504;2023-04-03T02:59:54;2.30;91.70
10192;DHT22;17580;50.850;4.504;2023-04-03T03:02:21;2.30;91.80
10192;DHT22;17580;50.850;4.504;2023-04-03T03:04:48;2.30;92.10
10192;DHT22;17580;50.850;4.504;2023-04-03T03:07:15;2.20;91.70
10192;DHT22;17580;50.850;4.504;2023-04-03T03:09:42;2.20;91.90
10192;DHT22;17580;50.850;4.504;2023-04-03T03:12:09;2.20;91.80
10192;DHT22;17580;50.850;4.504;2023-04-03T03:14:36;2.10;92.10
10192;DHT22;17580;50.850;4.504;2023-04-03T03:17:04;2.10;92.30
10192;DHT22;17580;50.850;4.504;2023-04-03T03:19:31;2.10;92.20
10192;DHT22;17580;50.850;4.504;2023-04-03T03:21:58;2.10;91.70
10192;DHT22;17580;50.850;4.504;2023-04-03T03:24:25;2.10;92.10
10192;DHT22;17580;50.850;4.504;2023-04-03T03:26:52;2.10;92.00
10192;DHT22;17580;50.850;4.504;2023-04-03T03:29:19;2.10;92.10
10192;DHT22;17580;50.850;4.504;2023-04-03T03:31:46;2.10;91.90
10192;DHT22;17580;50.850;4.504;2023-04-03T03:34:14;2.10;91.40
10192;DHT22;17580;50.850;4.504;2023-04-03T03:36:41;2.00;91.90
10192;DHT22;17580;50.850;4.504;2023-04-03T03:39:09;2.00;92.20
10192;DHT22;17580;50.850;4.504;2023-04-03T03:41:36;2.10;92.50
10192;DHT22;17580;50.850;4.504;2023-04-03T03:44:03;2.10;91.70
10192;DHT22;17580;50.850;4.504;2023-04-03T03:46:30;2.10;92.20
10192;DHT22;17580;50.850;4.504;2023-04-03T03:48:57;2.10;91.70
10192;DHT22;17580;50.850;4.504;2023-04-03T03:51:26;2.10;92.20
10192;DHT22;17580;50.850;4.504;2023-04-03T03:53:53;2.00;91.50
10192;DHT22;17580;50.850;4.504;2023-04-03T03:56:20;2.00;92.00
10192;DHT22;17580;50.850;4.504;2023-04-03T03:58:47;1.90;91.70
10192;DHT22;17580;50.850;4.504;2023-04-03T04:01:14;1.90;92.70
10192;DHT22;17580;50.850;4.504;2023-04-03T04:03:42;1.90;93.00
10192;DHT22;17580;50.850;4.504;2023-04-03T04:06:09;1.80;93.00
10192;DHT22;17580;50.850;4.504;2023-04-03T04:08:37;1.90;93.40
10192;DHT22;17580;50.850;4.504;2023-04-03T04:11:04;1.90;93.10
10192;DHT22;17580;50.850;4.504;2023-04-03T04:13:31;1.80;93.30
10192;DHT22;17580;50.850;4.504;2023-04-03T04:15:58;1.80;93.00
10192;DHT22;17580;50.850;4.504;2023-04-03T04:18:25;1.80;93.20
10192;DHT22;17580;50.850;4.504;2023-04-03T04:20:52;1.80;93.30
10192;DHT22;17580;50.850;4.504;2023-04-03T04:23:19;1.80;93.10
10192;DHT22;17580;50.850;4.504;2023-04-03T04:25:48;1.80;93.20
10192;DHT22;17580;50.850;4.504;2023-04-03T04:28:15;1.80;93.00
10192;DHT22;17580;50.850;4.504;2023-04-03T04:30:43;1.80;93.30
10192;DHT22;17580;50.850;4.504;2023-04-03T04:33:10;1.80;93.40
10192;DHT22;17580;50.850;4.504;2023-04-03T04:35:37;1.80;92.90
10192;DHT22;17580;50.850;4.504;2023-04-03T04:38:03;1.70;93.30
10192;DHT22;17580;50.850;4.504;2023-04-03T04:40:31;1.70;93.30
10192;DHT22;17580;50.850;4.504;2023-04-03T04:42:59;1.70;93.20
10192;DHT22;17580;50.850;4.504;2023-04-03T04:45:26;1.70;93.60
10192;DHT22;17580;50.850;4.504;2023-04-03T04:47:55;1.60;93.50
10192;DHT22;17580;50.850;4.504;2023-04-03T04:50:22;1.60;94.00
10192;DHT22;17580;50.850;4.504;2023-04-03T04:52:49;1.60;94.10
10192;DHT22;17580;50.850;4.504;2023-04-03T04:55:16;1.60;94.30
10192;DHT22;17580;50.850;4.504;2023-04-03T04:57:43;1.70;94.60
10192;DHT22;17580;50.850;4.504;2023-04-03T05:00:13;1.70;94.70
10192;DHT22;17580;50.850;4.504;2023-04-03T05:02:40;1.70;94.20
10192;DHT22;17580;50.850;4.504;2023-04-03T05:05:08;1.70;94.60
10192;DHT22;17580;50.850;4.504;2023-04-03T05:07:35;1.70;95.40
10192;DHT22;17580;50.850;4.504;2023-04-03T05:10:03;1.80;95.20
10192;DHT22;17580;50.850;4.504;2023-04-03T05:12:30;1.80;94.70
10192;DHT22;17580;50.850;4.504;2023-04-03T05:14:57;1.80;95.10
10192;DHT22;17580;50.850;4.504;2023-04-03T05:17:25;1.80;94.10
10192;DHT22;17580;50.850;4.504;2023-04-03T05:19:52;1.70;94.00
10192;DHT22;17580;50.850;4.504;2023-04-03T05:22:19;1.70;94.10
10192;DHT22;17580;50.850;4.504;2023-04-03T05:24:46;1.70;94.10
10192;DHT22;17580;50.850;4.504;2023-04-03T05:27:13;1.70;94.20
10192;DHT22;17580;50.850;4.504;2023-04-03T05:29:40;1.70;94.30
10192;DHT22;17580;50.850;4.504;2023-04-03T05:32:09;1.70;94.10
10192;DHT22;17580;50.850;4.504;2023-04-03T05:34:37;1.70;94.40
10192;DHT22;17580;50.850;4.504;2023-04-03T05:37:04;1.70;93.90
10192;DHT22;17580;50.850;4.504;2023-04-03T05:39:31;1.70;94.60
10192;DHT22;17580;50.850;4.504;2023-04-03T05:41:58;1.70;94.00
10192;DHT22;17580;50.850;4.504;2023-04-03T05:44:25;1.70;94.50
10192;DHT22;17580;50.850;4.504;2023-04-03T05:46:52;1.70;94.40
10192;DHT22;17580;50.850;4.504;2023-04-03T05:49:19;1.70;94.50
10192;DHT22;17580;50.850;4.504;2023-04-03T05:51:48;1.80;95.10
10192;DHT22;17580;50.850;4.504;2023-04-03T05:54:18;1.80;95.00
10192;DHT22;17580;50.850;4.504;2023-04-03T05:56:46;1.90;95.00
10192;DHT22;17580;50.850;4.504;2023-04-03T05:59:13;1.90;95.10
10192;DHT22;17580;50.850;4.504;2023-04-03T06:01:39;2.00;95.30
10192;DHT22;17580;50.850;4.504;2023-04-03T06:04:07;2.10;95.40
10192;DHT22;17580;50.850;4.504;2023-04-03T06:06:49;2.20;94.40
10192;DHT22;17580;50.850;4.504;2023-04-03T06:09:19;2.30;94.60
10192;DHT22;17580;50.850;4.504;2023-04-03T06:11:46;2.40;94.50
10192;DHT22;17580;50.850;4.504;2023-04-03T06:14:13;2.40;94.70
10192;DHT22;17580;50.850;4.504;2023-04-03T06:16:40;2.60;94.20
10192;DHT22;17580;50.850;4.504;2023-04-03T06:19:08;2.80;92.70
10192;DHT22;17580;50.850;4.504;2023-04-03T06:21:35;3.00;92.80
10192;DHT22;17580;50.850;4.504;2023-04-03T06:24:04;3.00;91.90
10192;DHT22;17580;50.850;4.504;2023-04-03T06:26:31;3.30;91.30
10192;DHT22;17580;50.850;4.504;2023-04-03T06:28:58;3.90;89.00
10192;DHT22;17580;50.850;4.504;2023-04-03T06:31:25;4.30;83.80
10192;DHT22;17580;50.850;4.504;2023-04-03T06:33:52;4.50;82.10
10192;DHT22;17580;50.850;4.504;2023-04-03T06:36:20;5.00;80.10
10192;DHT22;17580;50.850;4.504;2023-04-03T06:38:47;5.20;77.60
10192;DHT22;17580;50.850;4.504;2023-04-03T06:41:16;5.30;74.70
10192;DHT22;17580;50.850;4.504;2023-04-03T06:43:43;5.30;75.30
10192;DHT22;17580;50.850;4.504;2023-04-03T06:46:14;5.40;74.40
10192;DHT22;17580;50.850;4.504;2023-04-03T06:48:42;5.40;75.00
10192;DHT22;17580;50.850;4.504;2023-04-03T06:51:16;5.40;75.50
10192;DHT22;17580;50.850;4.504;2023-04-03T06:53:44;4.90;75.00
10192;DHT22;17580;50.850;4.504;2023-04-03T06:56:11;4.70;75.80
10192;DHT22;17580;50.850;4.504;2023-04-03T06:58:40;4.50;77.40
10192;DHT22;17580;50.850;4.504;2023-04-03T07:01:07;4.30;77.80
10192;DHT22;17580;50.850;4.504;2023-04-03T07:03:35;4.20;79.90
10192;DHT22;17580;50.850;4.504;2023-04-03T07:06:02;4.10;80.80
10192;DHT22;17580;50.850;4.504;2023-04-03T07:08:29;4.00;80.80
10192;DHT22;17580;50.850;4.504;2023-04-03T07:10:56;3.90;80.70
10192;DHT22;17580;50.850;4.504;2023-04-03T07:13:23;3.90;83.50
10192;DHT22;17580;50.850;4.504;2023-04-03T07:15:52;4.00;83.90
10192;DHT22;17580;50.850;4.504;2023-04-03T07:18:19;4.10;83.30
10192;DHT22;17580;50.850;4.504;2023-04-03T07:20:47;4.10;84.40
10192;DHT22;17580;50.850;4.504;2023-04-03T07:23:14;4.20;81.90
10192;DHT22;17580;50.850;4.504;2023-04-03T07:25:42;4.20;83.40
10192;DHT22;17580;50.850;4.504;2023-04-03T07:28:10;4.30;81.20
10192;DHT22;17580;50.850;4.504;2023-04-03T07:30:42;4.30;83.70
10192;DHT22;17580;50.850;4.504;2023-04-03T07:33:12;4.30;82.80
10192;DHT22;17580;50.850;4.504;2023-04-03T07:35:40;4.30;81.40
10192;DHT22;17580;50.850;4.504;2023-04-03T07:38:07;4.40;82.70
10192;DHT22;17580;50.850;4.504;2023-04-03T07:40:34;4.40;80.70
10192;DHT22;17580;50.850;4.504;2023-04-03T07:43:01;4.50;82.30
10192;DHT22;17580;50.850;4.504;2023-04-03T07:45:29;4.60;81.00
10192;DHT22;17580;50.850;4.504;2023-04-03T07:47:56;4.60;78.10
10192;DHT22;17580;50.850;4.504;2023-04-03T07:50:24;4.70;78.10
10192;DHT22;17580;50.850;4.504;2023-04-03T07:52:51;4.80;77.80
10192;DHT22;17580;50.850;4.504;2023-04-03T07:55:20;4.90;75.60
10192;DHT22;17580;50.850;4.504;2023-04-03T07:57:47;4.90;78.70
10192;DHT22;17580;50.850;4.504;2023-04-03T08:00:14;5.10;78.10
10192;DHT22;17580;50.850;4.504;2023-04-03T08:02:43;5.30;75.90
10192;DHT22;17580;50.850;4.504;2023-04-03T08:05:10;5.50;71.50
10192;DHT22;17580;50.850;4.504;2023-04-03T08:07:38;6.00;72.30
10192;DHT22;17580;50.850;4.504;2023-04-03T08:10:06;6.80;70.20
10192;DHT22;17580;50.850;4.504;2023-04-03T08:12:33;7.40;70.00
10192;DHT22;17580;50.850;4.504;2023-04-03T08:15:00;7.80;61.20
10192;DHT22;17580;50.850;4.504;2023-04-03T08:17:27;8.10;60.10
10192;DHT22;17580;50.850;4.504;2023-04-03T08:19:55;8.90;58.00
10192;DHT22;17580;50.850;4.504;2023-04-03T08:22:22;9.80;56.10
10192;DHT22;17580;50.850;4.504;2023-04-03T08:24:50;10.30;54.90
10192;DHT22;17580;50.850;4.504;2023-04-03T08:27:17;11.00;51.30
10192;DHT22;17580;50.850;4.504;2023-04-03T08:29:44;10.50;51.50
10192;DHT22;17580;50.850;4.504;2023-04-03T08:32:11;10.40;54.80
10192;DHT22;17580;50.850;4.504;2023-04-03T08:34:38;10.50;52.50
10192;DHT22;17580;50.850;4.504;2023-04-03T08:37:05;11.00;52.50
10192;DHT22;17580;50.850;4.504;2023-04-03T08:39:32;11.70;52.00
10192;DHT22;17580;50.850;4.504;2023-04-03T08:42:07;11.60;48.60
10192;DHT22;17580;50.850;4.504;2023-04-03T08:44:39;12.10;46.30
10192;DHT22;17580;50.850;4.504;2023-04-03T08:47:20;13.00;44.10
10192;DHT22;17580;50.850;4.504;2023-04-03T08:49:51;13.40;42.20
10192;DHT22;17580;50.850;4.504;2023-04-03T08:52:24;13.50;37.60
10192;DHT22;17580;50.850;4.504;2023-04-03T08:54:56;14.00;36.70
10192;DHT22;17580;50.850;4.504;2023-04-03T08:57:30;14.30;34.60
10192;DHT22;17580;50.850;4.504;2023-04-03T09:00:00;14.40;34.50
10192;DHT22;17580;50.850;4.504;2023-04-03T09:02:33;15.20;31.90
10192;DHT22;17580;50.850;4.504;2023-04-03T09:05:02;15.00;33.40
10192;DHT22;17580;50.850;4.504;2023-04-03T09:07:38;15.40;31.30
10192;DHT22;17580;50.850;4.504;2023-04-03T09:10:07;15.80;30.90
10192;DHT22;17580;50.850;4.504;2023-04-03T09:12:41;16.20;26.70
10192;DHT22;17580;50.850;4.504;2023-04-03T09:15:16;16.80;26.20
10192;DHT22;17580;50.850;4.504;2023-04-03T09:17:53;16.50;27.00
10192;DHT22;17580;50.850;4.504;2023-04-03T09:20:29;17.00;23.90
10192;DHT22;17580;50.850;4.504;2023-04-03T09:22:58;17.40;18.80
10192;DHT22;17580;50.850;4.504;2023-04-03T09:25:27;17.60;18.00
10192;DHT22;17580;50.850;4.504;2023-04-03T09:27:56;17.50;18.70
10192;DHT22;17580;50.850;4.504;2023-04-03T09:30:24;17.80;18.10
10192;DHT22;17580;50.850;4.504;2023-04-03T09:32:53;18.40;11.90
10192;DHT22;17580;50.850;4.504;2023-04-03T09:35:23;18.80;9.10
10192;DHT22;17580;50.850;4.504;2023-04-03T09:37:52;18.90;8.00
10192;DHT22;17580;50.850;4.504;2023-04-03T09:40:33;19.30;10.40
10192;DHT22;17580;50.850;4.504;2023-04-03T09:43:19;19.80;4.50
10192;DHT22;17580;50.850;4.504;2023-04-03T09:45:47;19.20;5.00
10192;DHT22;17580;50.850;4.504;2023-04-03T09:48:17;19.40;1.00
10192;DHT22;17580;50.850;4.504;2023-04-03T09:50:59;19.80;2.40
10192;DHT22;17580;50.850;4.504;2023-04-03T09:53:30;20.10;1.00
10192;DHT22;17580;50.850;4.504;2023-04-03T09:55:58;19.60;1.70
10192;DHT22;17580;50.850;4.504;2023-04-03T09:58:29;18.80;2.10
10192;DHT22;17580;50.850;4.504;2023-04-03T10:00:57;19.00;2.90
10192;DHT22;17580;50.850;4.504;2023-04-03T10:03:28;19.50;1.00
10192;DHT22;17580;50.850;4.504;2023-04-03T10:05:56;20.10;1.00
10192;DHT22;17580;50.850;4.504;2023-04-03T10:08:27;20.00;1.00
10192;DHT22;17580;50.850;4.504;2023-04-03T10:11:15;19.60;1.00
10192;DHT22;17580;50.850;4.504;2023-04-03T10:13:57;19.90;1.00
10192;DHT22;17580;50.850;4.504;2023-04-03T10:16:34;20.40;1.00
10192;DHT22;17580;50.850;4.504;2023-04-03T10:19:23;19.90;1.00
10192;DHT22;17580;50.850;4.504;2023-04-03T10:21:57;20.10;1.00
10192;DHT22;17580;50.850;4.504;2023-04-03T10:24:30;20.70;1.00
10192;DHT22;17580;50.850;4.504;2023-04-03T10:27:05;20.20;1.00
10192;DHT22;17580;50.850;4.504;2023-04-03T10:29:47;19.60;1.00
10192;DHT22;17580;50.850;4.504;2023-04-03T10:32:30;19.70;1.00
10192;DHT22;17580;50.850;4.504;2023-04-03T10:35:10;20.20;1.00
10192;DHT22;17580;50.850;4.504;2023-04-03T10:37:49;19.90;1.00
10192;DHT22;17580;50.850;4.504;2023-04-03T10:40:24;19.80;1.00
10192;DHT22;17580;50.850;4.504;2023-04-03T10:43:04;19.60;1.00
10192;DHT22;17580;50.850;4.504;2023-04-03T10:45:47;19.10;1.00
10192;DHT22;17580;50.850;4.504;2023-04-03T10:48:30;19.70;1.00
10192;DHT22;17580;50.850;4.504;2023-04-03T10:51:03;19.50;1.00
10192;DHT22;17580;50.850;4.504;2023-04-03T10:53:37;19.30;1.00
10192;DHT22;17580;50.850;4.504;2023-04-03T10:56:13;18.90;1.00
10192;DHT22;17580;50.850;4.504;2023-04-03T10:58:45;19.40;1.00
10192;DHT22;17580;50.850;4.504;2023-04-03T11:01:20;19.40;1.00
10192;DHT22;17580;50.850;4.504;2023-04-03T11:03:49;19.50;1.00
10192;DHT22;17580;50.850;4.504;2023-04-03T11:06:22;19.30;1.00
10192;DHT22;17580;50.850;4.504;2023-04-03T11:08:55;19.70;1.00
10192;DHT22;17580;50.850;4.504;2023-04-03T11:11:26;20.00;1.00
10192;DHT22;17580;50.850;4.504;2023-04-03T11:13:58;20.60;1.00
10192;DHT22;17580;50.850;4.504;2023-04-03T11:16:33;20.40;1.00
10192;DHT22;17580;50.850;4.504;2023-04-03T11:19:04;20.30;1.00
10192;DHT22;17580;50.850;4.504;2023-04-03T11:21:37;20.00;1.00
10192;DHT22;17580;50.850;4.504;2023-04-03T11:24:14;19.60;1.00
10192;DHT22;17580;50.850;4.504;2023-04-03T11:26:43;19.80;1.00
10192;DHT22;17580;50.850;4.504;2023-04-03T11:29:14;19.90;1.00
10192;DHT22;17580;50.850;4.504;2023-04-03T11:32:01;19.70;1.00
10192;DHT22;17580;50.850;4.504;2023-04-03T11:34:34;19.60;1.00
10192;DHT22;17580;50.850;4.504;2023-04-03T11:37:13;19.80;1.00
10192;DHT22;17580;50.850;4.504;2023-04-03T11:39:49;20.10;1.00
10192;DHT22;17580;50.850;4.504;2023-04-03T11:42:25;20.40;1.00
10192;DHT22;17580;50.850;4.504;2023-04-03T11:45:16;20.20;1.00
10192;DHT22;17580;50.850;4.504;2023-04-03T11:47:46;20.10;1.00
10192;DHT22;17580;50.850;4.504;2023-04-03T11:50:38;20.00;1.00
10192;DHT22;17580;50.850;4.504;2023-04-03T11:53:40;20.10;1.00
10192;DHT22;17580;50.850;4.504;2023-04-03T11:56:29;19.40;1.00
10192;DHT22;17580;50.850;4.504;2023-04-03T11:59:22;19.00;1.00
10192;DHT22;17580;50.850;4.504;2023-04-03T12:01:50;19.90;1.00
10192;DHT22;17580;50.850;4.504;2023-04-03T12:04:20;19.80;1.00
10192;DHT22;17580;50.850;4.504;2023-04-03T12:06:59;19.50;1.00
10192;DHT22;17580;50.850;4.504;2023-04-03T12:09:32;19.60;1.00
10192;DHT22;17580;50.850;4.504;2023-04-03T12:14:43;19.70;1.00
10192;DHT22;17580;50.850;4.504;2023-04-03T12:17:20;19.60;1.00
10192;DHT22;17580;50.850;4.504;2023-04-03T12:19:50;19.20;1.00
10192;DHT22;17580;50.850;4.504;2023-04-03T12:22:18;19.40;1.00
10192;DHT22;17580;50.850;4.504;2023-04-03T12:24:48;19.60;1.00
10192;DHT22;17580;50.850;4.504;2023-04-03T12:30:26;18.70;1.00
10192;DHT22;17580;50.850;4.504;2023-04-03T12:33:23;18.50;1.00
10192;DHT22;17580;50.850;4.504;2023-04-03T12:36:04;18.10;1.00
10192;DHT22;17580;50.850;4.504;2023-04-03T12:39:03;18.20;1.00
10192;DHT22;17580;50.850;4.504;2023-04-03T12:41:38;18.30;1.00
10192;DHT22;17580;50.850;4.504;2023-04-03T12:44:38;18.40;1.00
10192;DHT22;17580;50.850;4.504;2023-04-03T12:47:21;18.50;1.00
10192;DHT22;17580;50.850;4.504;2023-04-03T12:49:50;18.20;1.00
10192;DHT22;17580;50.850;4.504;2023-04-03T12:52:29;18.70;1.00
10192;DHT22;17580;50.850;4.504;2023-04-03T12:54:57;18.90;1.00
10192;DHT22;17580;50.850;4.504;2023-04-03T12:57:26;18.70;1.00
10192;DHT22;17580;50.850;4.504;2023-04-03T12:59:54;18.30;1.00
10192;DHT22;17580;50.850;4.504;2023-04-03T13:02:23;18.10;1.00
10192;DHT22;17580;50.850;4.504;2023-04-03T13:04:53;18.10;1.00
10192;DHT22;17580;50.850;4.504;2023-04-03T13:07:27;17.90;1.00
10192;DHT22;17580;50.850;4.504;2023-04-03T13:09:58;17.60;1.00
10192;DHT22;17580;50.850;4.504;2023-04-03T13:12:26;17.70;1.00
10192;DHT22;17580;50.850;4.504;2023-04-03T13:14:55;17.60;1.00
10192;DHT22;17580;50.850;4.504;2023-04-03T13:17:22;17.40;1.00
10192;DHT22;17580;50.850;4.504;2023-04-03T13:19:49;17.40;1.00
10192;DHT22;17580;50.850;4.504;2023-04-03T13:22:27;17.20;1.00
10192;DHT22;17580;50.850;4.504;2023-04-03T13:24:58;17.30;1.00
10192;DHT22;17580;50.850;4.504;2023-04-03T13:27:26;16.90;1.00
10192;DHT22;17580;50.850;4.504;2023-04-03T13:29:57;16.80;1.00
10192;DHT22;17580;50.850;4.504;2023-04-03T13:32:27;16.30;1.00
10192;DHT22;17580;50.850;4.504;2023-04-03T13:34:55;15.70;1.00
10192;DHT22;17580;50.850;4.504;2023-04-03T13:37:26;15.70;1.00
10192;DHT22;17580;50.850;4.504;2023-04-03T13:39:59;15.00;1.00
10192;DHT22;17580;50.850;4.504;2023-04-03T13:42:27;14.70;1.00
10192;DHT22;17580;50.850;4.504;2023-04-03T13:45:11;14.40;1.00
10192;DHT22;17580;50.850;4.504;2023-04-03T13:47:39;14.20;1.00
10192;DHT22;17580;50.850;4.504;2023-04-03T13:50:15;14.20;1.00
10192;DHT22;17580;50.850;4.504;2023-04-03T13:52:48;14.50;1.00
10192;DHT22;17580;50.850;4.504;2023-04-03T13:55:20;14.50;1.00
10192;DHT22;17580;50.850;4.504;2023-04-03T13:57:57;14.40;1.00
10192;DHT22;17580;50.850;4.504;2023-04-03T14:00:36;14.20;1.00
10192;DHT22;17580;50.850;4.504;2023-04-03T14:03:13;14.10;1.00
10192;DHT22;17580;50.850;4.504;2023-04-03T14:05:40;14.10;1.00
10192;DHT22;17580;50.850;4.504;2023-04-03T14:08:09;13.90;1.00
10192;DHT22;17580;50.850;4.504;2023-04-03T14:10:36;13.50;1.00
10192;DHT22;17580;50.850;4.504;2023-04-03T14:13:04;13.50;1.00
10192;DHT22;17580;50.850;4.504;2023-04-03T14:15:31;13.60;1.00
10192;DHT22;17580;50.850;4.504;2023-04-03T14:17:58;13.60;1.00
10192;DHT22;17580;50.850;4.504;2023-04-03T14:20:26;13.70;1.00
10192;DHT22;17580;50.850;4.504;2023-04-03T14:22:54;13.90;1.00
10192;DHT22;17580;50.850;4.504;2023-04-03T14:25:23;13.80;1.00
10192;DHT22;17580;50.850;4.504;2023-04-03T14:27:52;14.00;1.00
10192;DHT22;17580;50.850;4.504;2023-04-03T14:30:22;14.10;1.00
10192;DHT22;17580;50.850;4.504;2023-04-03T14:32:51;14.00;1.00
10192;DHT22;17580;50.850;4.504;2023-04-03T14:35:19;13.70;1.00
10192;DHT22;17580;50.850;4.504;2023-04-03T14:37:47;13.60;1.00
10192;DHT22;17580;50.850;4.504;2023-04-03T14:40:15;13.70;1.00
10192;DHT22;17580;50.850;4.504;2023-04-03T14:42:44;13.30;1.00
10192;DHT22;17580;50.850;4.504;2023-04-03T14:45:13;13.30;1.00
10192;DHT22;17580;50.850;4.504;2023-04-03T14:47:44;13.20;1.00
10192;DHT22;17580;50.850;4.504;2023-04-03T14:50:16;13.10;1.00
10192;DHT22;17580;50.850;4.504;2023-04-03T14:52:44;13.00;1.00
10192;DHT22;17580;50.850;4.504;2023-04-03T14:55:14;13.10;1.00
10192;DHT22;17580;50.850;4.504;2023-04-03T14:57:41;13.00;1.00
10192;DHT22;17580;50.850;4.504;2023-04-03T15:00:13;13.00;1.00
10192;DHT22;17580;50.850;4.504;2023-04-03T15:02:41;12.70;1.00
10192;DHT22;17580;50.850;4.504;2023-04-03T15:05:11;12.60;1.00
10192;DHT22;17580;50.850;4.504;2023-04-03T15:07:41;12.80;1.00
10192;DHT22;17580;50.850;4.504;2023-04-03T15:10:17;12.80;1.00
10192;DHT22;17580;50.850;4.504;2023-04-03T15:12:44;12.80;1.00
10192;DHT22;17580;50.850;4.504;2023-04-03T15:15:16;12.70;1.00
10192;DHT22;17580;50.850;4.504;2023-04-03T15:17:44;12.70;1.00
10192;DHT22;17580;50.850;4.504;2023-04-03T15:20:13;12.70;1.00
10192;DHT22;17580;50.850;4.504;2023-04-03T15:22:40;12.70;1.00
10192;DHT22;17580;50.850;4.504;2023-04-03T15:25:08;12.60;1.00
10192;DHT22;17580;50.850;4.504;2023-04-03T15:27:35;12.60;1.00
10192;DHT22;17580;50.850;4.504;2023-04-03T15:30:03;12.50;1.00
10192;DHT22;17580;50.850;4.504;2023-04-03T15:32:31;12.50;1.00
10192;DHT22;17580;50.850;4.504;2023-04-03T15:34:59;12.50;1.00
10192;DHT22;17580;50.850;4.504;2023-04-03T15:37:26;12.40;1.00
10192;DHT22;17580;50.850;4.504;2023-04-03T15:39:53;12.40;1.00
10192;DHT22;17580;50.850;4.504;2023-04-03T15:42:20;12.20;1.00
10192;DHT22;17580;50.850;4.504;2023-04-03T15:44:47;12.20;1.00
10192;DHT22;17580;50.850;4.504;2023-04-03T15:47:14;12.10;1.00
10192;DHT22;17580;50.850;4.504;2023-04-03T15:49:42;12.20;1.00
10192;DHT22;17580;50.850;4.504;2023-04-03T15:52:10;12.20;1.00
10192;DHT22;17580;50.850;4.504;2023-04-03T15:54:36;12.00;1.00
10192;DHT22;17580;50.850;4.504;2023-04-03T15:57:03;11.90;1.00
10192;DHT22;17580;50.850;4.504;2023-04-03T15:59:30;11.90;1.00
10192;DHT22;17580;50.850;4.504;2023-04-03T16:01:58;11.80;1.00
10192;DHT22;17580;50.850;4.504;2023-04-03T16:04:26;11.80;1.00
10192;DHT22;17580;50.850;4.504;2023-04-03T16:06:55;11.80;1.00
10192;DHT22;17580;50.850;4.504;2023-04-03T16:09:22;11.80;1.00